createdAt,value
2018-12-06T00:00:44.726Z,39.63
2018-12-06T00:03:11.373Z,31.27
2018-12-06T00:05:38.015Z,32.80
2018-12-06T00:08:13.372Z,26.67
2018-12-06T00:10:40.114Z,35.93
2018-12-06T00:13:06.752Z,28.33
2018-12-06T00:15:33.453Z,30.50
2018-12-06T00:18:00.146Z,25.40
2018-12-06T00:20:26.767Z,26.20
2018-12-06T00:22:53.396Z,29.60
2018-12-06T00:25:20.013Z,23.87
2018-12-06T00:27:46.662Z,23.63
2018-12-06T00:30:19.205Z,23.87
2018-12-06T00:32:45.844Z,28.00
2018-12-06T00:35:12.491Z,23.77
2018-12-06T00:37:39.109Z,24.37
2018-12-06T00:40:05.804Z,27.73
2018-12-06T00:42:32.421Z,28.87
2018-12-06T00:44:59.801Z,27.13
2018-12-06T00:47:26.443Z,25.70
2018-12-06T00:49:53.097Z,25.50
2018-12-06T00:52:19.732Z,31.67
2018-12-06T00:54:46.352Z,26.77
2018-12-06T00:57:13.013Z,27.90
2018-12-06T00:59:39.688Z,24.50
2018-12-06T01:02:08.285Z,26.60
2018-12-06T01:04:34.953Z,27.10
2018-12-06T01:07:02.260Z,28.90
2018-12-06T01:09:28.953Z,23.03
2018-12-06T01:11:55.566Z,24.23
2018-12-06T01:14:24.146Z,24.40
2018-12-06T01:16:50.836Z,24.77
2018-12-06T01:19:17.577Z,22.33
2018-12-06T01:21:44.229Z,27.50
2018-12-06T01:24:10.844Z,24.10
2018-12-06T01:26:37.488Z,22.83
2018-12-06T01:29:04.180Z,25.97
2018-12-06T01:31:30.795Z,25.87
2018-12-06T01:33:57.440Z,27.10
2018-12-06T01:36:24.081Z,33.80
2018-12-06T01:38:50.696Z,29.10
2018-12-06T01:41:17.340Z,29.17
2018-12-06T01:43:43.972Z,29.40
2018-12-06T01:46:10.584Z,36.43
2018-12-06T01:48:37.488Z,28.97
2018-12-06T01:51:04.129Z,31.47
2018-12-06T01:53:30.745Z,35.37
2018-12-06T01:55:57.458Z,29.60
2018-12-06T01:58:24.073Z,33.90
2018-12-06T02:00:50.712Z,32.30
2018-12-06T02:03:17.381Z,31.33
2018-12-06T02:05:44.030Z,28.47
2018-12-06T02:08:10.654Z,33.03
2018-12-06T02:10:37.301Z,33.40
2018-12-06T02:13:03.942Z,30.70
2018-12-06T02:15:30.683Z,34.27
2018-12-06T02:17:57.325Z,29.57
2018-12-06T02:20:24.060Z,30.13
2018-12-06T02:22:50.680Z,34.83
2018-12-06T02:25:17.321Z,27.07
2018-12-06T02:27:43.981Z,29.27
2018-12-06T02:30:10.666Z,23.53
2018-12-06T02:32:37.281Z,28.43
2018-12-06T02:35:04.070Z,26.80
2018-12-06T02:37:30.687Z,26.90
2018-12-06T02:39:57.378Z,26.50
2018-12-06T02:42:24.013Z,30.10
2018-12-06T02:44:50.657Z,28.07
2018-12-06T02:47:17.306Z,25.10
2018-12-06T02:49:43.921Z,27.87
2018-12-06T02:52:10.616Z,28.77
2018-12-06T02:54:37.313Z,24.33
2018-12-06T02:57:04.108Z,27.20
2018-12-06T02:59:30.751Z,25.30
2018-12-06T03:01:57.430Z,23.83
2018-12-06T03:04:24.068Z,27.90
2018-12-06T03:06:50.817Z,25.67
2018-12-06T03:09:17.457Z,27.23
2018-12-06T03:11:44.079Z,22.40
2018-12-06T03:14:10.741Z,24.90
2018-12-06T03:16:37.382Z,23.90
2018-12-06T03:19:04.098Z,23.20
2018-12-06T03:21:30.741Z,19.50
2018-12-06T03:23:57.380Z,21.93
2018-12-06T03:26:24.024Z,20.83
2018-12-06T03:28:50.637Z,22.00
2018-12-06T03:31:17.315Z,21.20
2018-12-06T03:33:44.062Z,17.33
2018-12-06T03:36:10.728Z,19.70
2018-12-06T03:38:37.426Z,18.07
2018-12-06T03:41:04.050Z,18.40
2018-12-06T03:43:30.689Z,16.80
2018-12-06T03:45:57.343Z,19.73
2018-12-06T03:48:23.984Z,22.07
2018-12-06T03:50:50.624Z,19.30
2018-12-06T03:53:17.372Z,23.50
2018-12-06T03:55:43.989Z,25.40
2018-12-06T04:00:43.837Z,21.07
2018-12-06T04:03:10.455Z,22.67
2018-12-06T04:05:37.092Z,21.10
2018-12-06T04:08:03.757Z,26.47
2018-12-06T04:10:31.027Z,23.07
2018-12-06T04:12:57.663Z,22.10
2018-12-06T04:15:24.278Z,24.23
2018-12-06T04:17:50.934Z,23.63
2018-12-06T04:20:17.560Z,26.13
2018-12-06T04:22:44.300Z,25.03
2018-12-06T04:25:10.941Z,24.67
2018-12-06T04:27:37.585Z,23.00
2018-12-06T04:30:04.574Z,25.80
2018-12-06T04:32:31.209Z,25.20
2018-12-06T04:34:57.906Z,19.93
2018-12-06T04:37:24.523Z,24.10
2018-12-06T04:39:51.193Z,23.93
2018-12-06T04:42:17.809Z,19.07
2018-12-06T04:44:44.462Z,19.70
2018-12-06T04:47:11.112Z,22.70
2018-12-06T04:49:37.842Z,22.17
2018-12-06T04:52:04.513Z,22.07
2018-12-06T04:54:31.158Z,18.60
2018-12-06T04:56:57.856Z,22.40
2018-12-06T04:59:24.479Z,19.57
2018-12-06T05:01:51.120Z,21.47
2018-12-06T05:04:18.099Z,21.20
2018-12-06T05:06:44.734Z,20.03
2018-12-06T05:09:11.377Z,19.10
2018-12-06T05:11:38.016Z,19.83
2018-12-06T05:14:04.624Z,20.30
2018-12-06T05:16:31.333Z,20.43
2018-12-06T05:18:57.975Z,18.10
2018-12-06T05:21:24.658Z,21.13
2018-12-06T05:23:51.301Z,17.93
2018-12-06T05:26:17.932Z,20.70
2018-12-06T05:28:44.572Z,20.47
2018-12-06T05:31:11.216Z,21.30
2018-12-06T05:33:37.828Z,19.97
2018-12-06T05:36:04.469Z,19.67
2018-12-06T05:38:31.105Z,19.40
2018-12-06T05:40:58.385Z,21.57
2018-12-06T05:43:25.120Z,22.83
2018-12-06T05:45:51.879Z,19.20
2018-12-06T05:48:18.488Z,24.07
2018-12-06T05:50:45.145Z,20.00
2018-12-06T05:53:11.788Z,28.13
2018-12-06T05:55:38.421Z,25.90
2018-12-06T05:58:05.054Z,18.83
2018-12-06T06:00:31.699Z,24.52
2018-12-06T06:02:58.320Z,24.50
2018-12-06T06:05:25.040Z,28.10
2018-12-06T06:07:51.723Z,24.67
2018-12-06T06:10:18.341Z,26.50
2018-12-06T06:12:44.991Z,25.60
2018-12-06T06:15:11.680Z,27.07
2018-12-06T06:17:38.316Z,27.47
2018-12-06T06:20:05.109Z,27.73
2018-12-06T06:22:31.861Z,24.93
2018-12-06T06:24:58.541Z,24.77
2018-12-06T06:27:26.265Z,28.67
2018-12-06T06:29:53.105Z,29.07
2018-12-06T06:32:19.757Z,30.00
2018-12-06T06:34:46.393Z,24.30
2018-12-06T06:37:13.071Z,27.30
2018-12-06T06:39:39.902Z,27.83
2018-12-06T06:42:06.541Z,29.90
2018-12-06T06:44:33.241Z,33.03
2018-12-06T06:46:59.886Z,30.33
2018-12-06T06:49:26.498Z,27.03
2018-12-06T06:51:53.137Z,28.90
2018-12-06T06:54:19.807Z,27.37
2018-12-06T06:56:46.649Z,27.80
2018-12-06T06:59:13.289Z,27.03
2018-12-06T07:01:39.981Z,25.10
2018-12-06T07:04:06.604Z,23.50
2018-12-06T07:06:33.221Z,24.27
2018-12-06T07:08:59.946Z,26.47
2018-12-06T07:11:26.580Z,24.77
2018-12-06T07:13:53.199Z,21.97
2018-12-06T07:16:19.845Z,24.23
2018-12-06T07:18:46.459Z,25.37
2018-12-06T07:21:13.104Z,20.40
2018-12-06T07:23:39.744Z,22.23
2018-12-06T07:26:06.405Z,21.53
2018-12-06T07:28:33.021Z,17.30
2018-12-06T07:30:59.730Z,20.73
2018-12-06T07:33:26.340Z,22.20
2018-12-06T07:35:52.952Z,23.00
2018-12-06T07:38:19.649Z,23.33
2018-12-06T07:40:46.292Z,21.10
2018-12-06T07:43:12.997Z,21.47
2018-12-06T07:45:39.640Z,24.90
2018-12-06T07:48:06.257Z,24.03
2018-12-06T07:50:33.436Z,21.07
2018-12-06T07:53:00.157Z,22.70
2018-12-06T07:55:26.785Z,26.30
2018-12-06T07:57:53.440Z,24.77
2018-12-06T08:00:20.112Z,21.70
2018-12-06T08:02:46.825Z,25.37
2018-12-06T08:05:13.437Z,23.20
2018-12-06T08:07:40.062Z,22.37
2018-12-06T08:10:06.973Z,23.37
2018-12-06T08:12:33.707Z,24.57
2018-12-06T08:15:00.308Z,24.10
2018-12-06T08:17:26.955Z,19.77
2018-12-06T08:19:53.569Z,23.10
2018-12-06T08:22:20.216Z,21.40
2018-12-06T08:24:46.833Z,24.23
2018-12-06T08:27:13.512Z,22.30
2018-12-06T08:29:40.176Z,22.53
2018-12-06T08:32:06.866Z,20.20
2018-12-06T08:34:33.540Z,24.63
2018-12-06T08:37:00.273Z,19.90
2018-12-06T08:39:26.916Z,20.37
2018-12-06T08:41:53.529Z,21.70
2018-12-06T08:44:21.467Z,21.90
2018-12-06T08:46:48.472Z,20.73
2018-12-06T08:49:15.113Z,21.77
2018-12-06T08:51:41.742Z,19.70
2018-12-06T08:54:08.366Z,19.63
2018-12-06T08:56:35.018Z,18.10
2018-12-06T08:59:02.449Z,21.80
2018-12-06T09:01:29.126Z,20.47
2018-12-06T09:03:55.766Z,20.40
2018-12-06T09:06:22.384Z,21.93
2018-12-06T09:08:49.037Z,21.03
2018-12-06T09:11:15.792Z,17.93
2018-12-06T09:13:42.521Z,20.47
2018-12-06T09:16:09.137Z,19.90
2018-12-06T09:18:35.785Z,19.60
2018-12-06T09:21:02.477Z,19.20
2018-12-06T09:23:29.117Z,19.43
2018-12-06T09:25:55.733Z,20.63
2018-12-06T09:28:22.457Z,18.90
2018-12-06T09:30:49.077Z,19.80
2018-12-06T09:33:15.782Z,18.23
2018-12-06T09:35:42.453Z,17.63
2018-12-06T09:38:09.070Z,17.50
2018-12-06T09:40:35.766Z,17.13
2018-12-06T09:43:02.400Z,18.70
2018-12-06T09:45:29.164Z,20.63
2018-12-06T09:47:55.800Z,18.60
2018-12-06T09:50:22.424Z,14.23
2018-12-06T09:52:49.060Z,18.67
2018-12-06T09:55:15.697Z,15.47
2018-12-06T09:57:42.432Z,17.50
2018-12-06T10:00:10.027Z,16.10
2018-12-06T10:02:36.672Z,15.40
2018-12-06T10:05:03.798Z,14.43
2018-12-06T10:07:30.445Z,17.93
2018-12-06T10:09:57.061Z,12.83
2018-12-06T10:12:23.745Z,13.93
2018-12-06T10:14:50.355Z,12.97
2018-12-06T10:17:16.977Z,14.13
2018-12-06T10:19:43.621Z,12.23
2018-12-06T10:22:10.233Z,13.83
2018-12-06T10:24:36.997Z,16.50
2018-12-06T10:27:03.642Z,16.20
2018-12-06T10:29:30.257Z,13.87
2018-12-06T10:31:56.945Z,11.30
2018-12-06T10:34:23.559Z,10.13
2018-12-06T10:36:50.192Z,8.87
2018-12-06T10:39:16.796Z,13.13
2018-12-06T10:41:43.437Z,9.80
2018-12-06T10:44:12.025Z,10.40
2018-12-06T10:46:38.633Z,9.13
2018-12-06T10:49:05.244Z,10.00
2018-12-06T10:51:37.738Z,10.10
2018-12-06T10:54:04.344Z,9.37
2018-12-06T10:56:30.984Z,9.97
2018-12-06T10:58:57.613Z,9.20
2018-12-06T11:01:26.193Z,9.20
2018-12-06T11:03:56.670Z,8.83
2018-12-06T11:06:23.304Z,9.80
2018-12-06T11:08:50.017Z,18.07
2018-12-06T11:11:16.757Z,10.23
2018-12-06T11:13:43.389Z,10.33
2018-12-06T11:16:39.112Z,13.63
2018-12-06T11:19:05.796Z,10.93
2018-12-06T11:21:32.504Z,9.50
2018-12-06T11:23:59.137Z,12.20
2018-12-06T11:26:25.745Z,14.60
2018-12-06T11:28:52.416Z,10.93
2018-12-06T11:31:19.044Z,13.57
2018-12-06T11:33:45.693Z,12.70
2018-12-06T11:36:12.317Z,13.17
2018-12-06T11:38:38.977Z,12.37
2018-12-06T11:41:05.612Z,12.87
2018-12-06T11:43:32.225Z,9.93
2018-12-06T11:45:58.860Z,13.20
2018-12-06T11:48:27.076Z,11.03
2018-12-06T11:50:54.114Z,10.93
2018-12-06T11:53:20.749Z,11.00
2018-12-06T11:55:47.390Z,13.40
2018-12-06T11:58:13.998Z,9.63
2018-12-06T12:00:40.689Z,9.20
2018-12-06T12:03:07.307Z,11.10
2018-12-06T12:05:33.913Z,9.23
2018-12-06T12:08:00.540Z,9.47
2018-12-06T12:10:27.144Z,8.60
2018-12-06T12:12:53.785Z,9.73
2018-12-06T12:15:20.395Z,6.83
2018-12-06T12:17:47.010Z,7.47
2018-12-06T12:20:13.641Z,7.20
2018-12-06T12:22:40.247Z,8.50
2018-12-06T12:25:06.881Z,8.03
2018-12-06T12:27:33.494Z,11.53
2018-12-06T12:30:00.128Z,7.87
2018-12-06T12:32:27.232Z,6.03
2018-12-06T12:34:54.457Z,9.37
2018-12-06T12:37:22.001Z,7.47
2018-12-06T12:39:49.067Z,10.13
2018-12-06T12:42:16.426Z,12.63
2018-12-06T12:44:43.757Z,10.90
2018-12-06T12:47:10.385Z,7.87
2018-12-06T12:49:37.034Z,8.83
2018-12-06T12:52:03.667Z,8.10
2018-12-06T12:54:30.278Z,8.13
2018-12-06T12:56:56.945Z,9.23
2018-12-06T12:59:23.562Z,10.60
2018-12-06T13:01:50.178Z,6.30
2018-12-06T13:04:16.861Z,8.40
2018-12-06T13:06:43.497Z,5.70
2018-12-06T13:09:10.132Z,7.60
2018-12-06T13:11:36.765Z,7.57
2018-12-06T13:14:03.419Z,5.60
2018-12-06T13:16:30.188Z,4.50
2018-12-06T13:18:56.853Z,5.13
2018-12-06T13:21:23.540Z,7.67
2018-12-06T13:23:50.180Z,10.50
2018-12-06T13:26:16.861Z,4.90
2018-12-06T13:28:43.545Z,5.30
2018-12-06T13:31:10.656Z,8.40
2018-12-06T13:33:37.844Z,6.47
2018-12-06T13:36:06.576Z,5.23
2018-12-06T13:38:33.801Z,6.87
2018-12-06T13:41:00.572Z,5.93
2018-12-06T13:43:27.299Z,6.90
2018-12-06T13:45:54.121Z,14.00
2018-12-06T13:48:20.906Z,8.07
2018-12-06T13:50:47.846Z,4.83
2018-12-06T13:53:14.505Z,11.03
2018-12-06T13:55:41.141Z,6.70
2018-12-06T13:58:07.900Z,8.30
2018-12-06T14:00:34.757Z,5.37
2018-12-06T14:03:01.842Z,9.83
2018-12-06T14:05:28.497Z,9.93
2018-12-06T14:07:55.209Z,6.37
2018-12-06T14:10:21.934Z,7.23
2018-12-06T14:12:48.593Z,7.00
2018-12-06T14:15:15.285Z,8.13
2018-12-06T14:17:41.968Z,7.63
2018-12-06T14:20:08.746Z,8.00
2018-12-06T14:22:35.433Z,8.83
2018-12-06T14:25:02.037Z,4.50
2018-12-06T14:27:28.663Z,6.07
2018-12-06T14:29:55.372Z,5.30
2018-12-06T14:32:22.109Z,7.60
2018-12-06T14:34:48.743Z,9.47
2018-12-06T14:37:15.403Z,10.17
2018-12-06T14:39:42.029Z,8.60
2018-12-06T14:42:09.004Z,7.63
2018-12-06T14:44:35.717Z,12.33
2018-12-06T14:47:02.352Z,8.00
2018-12-06T14:49:28.960Z,6.43
2018-12-06T14:51:55.637Z,4.33
2018-12-06T14:54:22.236Z,8.90
2018-12-06T14:56:48.909Z,6.93
2018-12-06T14:59:15.576Z,5.73
2018-12-06T15:01:42.287Z,8.30
2018-12-06T15:04:08.896Z,5.13
2018-12-06T15:06:37.683Z,8.43
2018-12-06T15:09:05.697Z,7.50
2018-12-06T15:11:32.344Z,13.63
2018-12-06T15:13:59.069Z,11.67
2018-12-06T15:16:25.706Z,7.00
2018-12-06T15:18:52.845Z,13.83
2018-12-06T15:21:19.493Z,7.50
2018-12-06T15:23:46.118Z,7.97
2018-12-06T15:26:12.740Z,9.70
2018-12-06T15:28:39.411Z,9.50
2018-12-06T15:31:06.019Z,6.33
2018-12-06T15:33:32.653Z,8.10
2018-12-06T15:35:59.286Z,8.00
2018-12-06T15:38:25.973Z,9.90
2018-12-06T15:40:52.608Z,6.70
2018-12-06T15:43:19.248Z,8.23
2018-12-06T15:45:45.887Z,9.57
2018-12-06T15:48:12.552Z,7.67
2018-12-06T15:50:39.503Z,17.13
2018-12-06T15:53:06.155Z,10.60
2018-12-06T15:55:32.790Z,11.93
2018-12-06T15:57:59.496Z,10.00
2018-12-06T16:00:26.124Z,8.77
2018-12-06T16:02:52.764Z,11.93
2018-12-06T16:05:19.377Z,8.23
2018-12-06T16:07:46.049Z,12.23
2018-12-06T16:10:12.689Z,7.63
2018-12-06T16:12:39.327Z,14.10
2018-12-06T16:15:06.293Z,10.00
2018-12-06T16:17:32.978Z,9.40
2018-12-06T16:19:59.585Z,9.57
2018-12-06T16:22:26.221Z,9.57
2018-12-06T16:24:53.009Z,8.50
2018-12-06T16:27:19.666Z,10.60
2018-12-06T16:29:51.385Z,12.40
2018-12-06T16:32:14.950Z,10.70
2018-12-06T16:34:41.580Z,8.20
2018-12-06T16:37:08.273Z,9.57
2018-12-06T16:39:34.913Z,7.10
2018-12-06T16:42:01.554Z,11.30
2018-12-06T16:44:28.192Z,9.77
2018-12-06T16:46:54.930Z,11.75
2018-12-06T16:49:21.579Z,12.30
2018-12-06T16:51:48.204Z,10.27
2018-12-06T16:54:14.824Z,10.37
2018-12-06T16:56:41.444Z,11.97
2018-12-06T16:59:08.057Z,9.10
2018-12-06T17:01:34.697Z,12.03
2018-12-06T17:04:02.320Z,12.93
2018-12-06T17:06:28.932Z,11.93
2018-12-06T17:08:55.571Z,10.40
2018-12-06T17:11:22.204Z,12.83
2018-12-06T17:13:48.836Z,8.87
2018-12-06T17:16:15.476Z,13.27
2018-12-06T17:18:42.095Z,13.00
2018-12-06T17:21:09.733Z,8.73
2018-12-06T17:23:36.362Z,8.90
2018-12-06T17:26:03.001Z,11.13
2018-12-06T17:28:29.636Z,9.20
2018-12-06T17:30:56.273Z,13.07
2018-12-06T17:33:22.912Z,12.93
2018-12-06T17:35:49.545Z,12.17
2018-12-06T17:38:16.177Z,13.53
2018-12-06T17:40:42.789Z,11.00
2018-12-06T17:43:09.425Z,11.87
2018-12-06T17:45:36.040Z,11.93
2018-12-06T17:48:02.676Z,10.83
2018-12-06T17:50:29.427Z,12.87
2018-12-06T17:53:02.173Z,13.20
2018-12-06T17:55:28.810Z,10.67
2018-12-06T17:57:55.457Z,12.37
2018-12-06T18:00:22.217Z,12.70
2018-12-06T18:02:48.858Z,12.20
2018-12-06T18:05:15.681Z,10.27
2018-12-06T18:07:42.284Z,11.23
2018-12-06T18:10:09.169Z,13.67
2018-12-06T18:12:35.890Z,13.90
2018-12-06T18:15:02.525Z,14.83
2018-12-06T18:17:29.201Z,12.07
2018-12-06T18:19:55.908Z,13.50
2018-12-06T18:22:23.503Z,12.43
2018-12-06T18:24:50.470Z,13.37
2018-12-06T18:27:17.169Z,17.73
2018-12-06T18:29:43.904Z,13.87
2018-12-06T18:32:10.544Z,15.03
2018-12-06T18:34:37.165Z,15.50
2018-12-06T18:37:03.824Z,12.83
2018-12-06T18:39:30.443Z,17.30
2018-12-06T18:41:57.096Z,15.73
2018-12-06T18:44:23.740Z,12.83
2018-12-06T18:46:50.404Z,12.10
2018-12-06T18:49:17.044Z,14.97
2018-12-06T18:51:43.761Z,12.63
2018-12-06T18:54:10.503Z,16.60
2018-12-06T18:56:37.114Z,11.03
2018-12-06T18:59:03.877Z,15.63
2018-12-06T19:01:30.525Z,12.50
2018-12-06T19:03:57.141Z,13.10
2018-12-06T19:06:23.797Z,11.80
2018-12-06T19:08:50.407Z,12.13
2018-12-06T19:11:17.068Z,14.57
2018-12-06T19:13:43.726Z,12.37
2018-12-06T19:16:10.353Z,13.90
2018-12-06T19:18:36.997Z,20.07
2018-12-06T19:21:03.690Z,16.43
2018-12-06T19:23:30.322Z,11.83
2018-12-06T19:25:57.014Z,15.93
2018-12-06T19:28:23.653Z,14.63
2018-12-06T19:30:50.275Z,15.13
2018-12-06T19:33:16.912Z,13.77
2018-12-06T19:35:43.556Z,16.57
2018-12-06T19:38:10.202Z,16.33
2018-12-06T19:40:36.845Z,16.00
2018-12-06T19:43:03.536Z,15.90
2018-12-06T19:45:30.173Z,13.63
2018-12-06T19:47:56.860Z,12.03
2018-12-06T19:50:23.501Z,11.67
2018-12-06T19:52:50.136Z,11.70
2018-12-06T19:55:16.777Z,11.57
2018-12-06T19:57:43.385Z,11.27
2018-12-06T20:00:10.162Z,9.27
2018-12-06T20:02:36.764Z,11.70
2018-12-06T20:05:04.354Z,11.17
2018-12-06T20:07:30.965Z,10.77
2018-12-06T20:09:57.624Z,9.03
2018-12-06T20:12:24.321Z,15.03
2018-12-06T20:14:50.926Z,9.90
2018-12-06T20:17:17.689Z,11.03
2018-12-06T20:19:44.397Z,12.77
2018-12-06T20:22:11.037Z,11.53
2018-12-06T20:24:37.677Z,8.60
2018-12-06T20:27:04.366Z,9.87
2018-12-06T20:29:31.000Z,9.23
2018-12-06T20:31:57.744Z,10.07
2018-12-06T20:34:24.436Z,10.90
2018-12-06T20:36:51.061Z,8.33
2018-12-06T20:39:17.712Z,8.80
2018-12-06T20:41:44.348Z,7.50
2018-12-06T20:44:10.993Z,7.23
2018-12-06T20:46:37.814Z,11.13
2018-12-06T20:49:04.484Z,7.83
2018-12-06T20:51:31.209Z,7.10
2018-12-06T20:53:57.821Z,7.00
2018-12-06T20:56:24.494Z,7.07
2018-12-06T20:58:51.139Z,7.07
2018-12-06T21:01:17.768Z,7.20
2018-12-06T21:03:44.376Z,10.27
2018-12-06T21:06:11.015Z,7.10
2018-12-06T21:08:37.657Z,7.23
2018-12-06T21:11:04.329Z,11.43
2018-12-06T21:13:30.967Z,6.63
2018-12-06T21:15:57.600Z,6.10
2018-12-06T21:18:24.221Z,6.87
2018-12-06T21:20:50.849Z,7.37
2018-12-06T21:23:17.467Z,6.53
2018-12-06T21:25:44.106Z,5.83
2018-12-06T21:28:10.796Z,5.87
2018-12-06T21:30:37.436Z,8.57
2018-12-06T21:33:04.077Z,6.20
2018-12-06T21:35:30.721Z,5.57
2018-12-06T21:37:57.348Z,4.87
2018-12-06T21:40:23.989Z,7.00
2018-12-06T21:42:50.632Z,5.57
2018-12-06T21:45:17.268Z,6.07
2018-12-06T21:47:43.897Z,6.27
2018-12-06T21:50:10.549Z,7.00
2018-12-06T21:52:37.187Z,6.83
2018-12-06T21:55:04.545Z,5.80
2018-12-06T21:57:31.177Z,5.90
2018-12-06T21:59:57.789Z,5.50
2018-12-06T22:02:24.772Z,7.03
2018-12-06T22:04:51.404Z,4.20
2018-12-06T22:07:18.257Z,4.50
2018-12-06T22:09:44.893Z,7.40
2018-12-06T22:12:11.575Z,4.70
2018-12-06T22:14:38.264Z,5.07
2018-12-06T22:17:08.289Z,7.30
2018-12-06T22:19:35.923Z,4.33
2018-12-06T22:22:05.065Z,4.00
2018-12-06T22:24:32.957Z,4.50
2018-12-06T22:27:00.737Z,3.63
2018-12-06T22:29:28.373Z,3.90
2018-12-06T22:31:55.844Z,4.60
2018-12-06T22:34:23.626Z,3.50
2018-12-06T22:36:51.305Z,3.50
2018-12-06T22:39:19.642Z,3.17
2018-12-06T22:41:47.265Z,3.50
2018-12-06T22:44:15.055Z,2.63
2018-12-06T22:46:42.604Z,4.10
2018-12-06T22:49:10.383Z,2.60
2018-12-06T22:51:37.094Z,2.80
2018-12-06T22:54:03.741Z,2.53
2018-12-06T22:56:30.349Z,3.13
2018-12-06T22:58:56.984Z,3.47
2018-12-06T23:01:29.388Z,3.17
2018-12-06T23:03:56.069Z,2.70
2018-12-06T23:06:22.685Z,2.33
2018-12-06T23:08:49.339Z,2.33
2018-12-06T23:11:15.964Z,1.87
2018-12-06T23:13:42.976Z,2.00
2018-12-06T23:16:09.640Z,2.33
2018-12-06T23:18:36.307Z,2.73
2018-12-06T23:21:03.971Z,2.10
2018-12-06T23:23:30.652Z,2.47
2018-12-06T23:25:57.321Z,1.97
2018-12-06T23:28:23.925Z,2.17
2018-12-06T23:30:50.569Z,3.33
2018-12-06T23:33:17.238Z,2.30
2018-12-06T23:35:43.850Z,4.63
2018-12-06T23:38:10.523Z,1.80
2018-12-06T23:40:37.157Z,1.80
2018-12-06T23:43:03.894Z,2.33
2018-12-06T23:45:30.504Z,1.63
2018-12-06T23:47:57.138Z,1.53
2018-12-06T23:50:23.733Z,2.00
2018-12-06T23:52:50.390Z,5.10
2018-12-06T23:55:17.088Z,1.63
2018-12-06T23:57:43.829Z,5.10
